createdAt,value
2023-03-26T12:33:04.008Z,3.20
2023-03-26T12:35:34.303Z,2.93
2023-03-26T12:38:23.822Z,4.20
2023-03-26T12:42:25.812Z,3.73
2023-03-26T12:44:56.160Z,4.10
2023-03-26T12:47:56.098Z,4.77
2023-03-26T12:49:59.645Z,3.13
2023-03-26T12:52:33.338Z,3.20
2023-03-26T12:55:30.774Z,5.13
2023-03-26T12:58:25.798Z,3.50
2023-03-26T13:01:15.947Z,6.53
2023-03-26T13:03:57.919Z,4.37
2023-03-26T13:06:59.896Z,4.27
2023-03-26T13:09:52.892Z,3.77
2023-03-26T13:12:46.814Z,5.20
2023-03-26T13:15:25.701Z,4.90
2023-03-26T13:17:58.621Z,5.17
2023-03-26T13:20:50.304Z,6.37
2023-03-26T13:23:23.387Z,4.73
2023-03-26T13:26:12.286Z,4.83
2023-03-26T13:28:54.203Z,4.50
2023-03-26T13:31:41.922Z,5.03
2023-03-26T13:34:41.096Z,4.80
2023-03-26T13:37:10.161Z,4.27
2023-03-26T13:39:56.165Z,4.13
2023-03-26T13:42:53.139Z,3.42
2023-03-26T13:45:41.274Z,3.35
2023-03-26T13:48:17.357Z,3.80
2023-03-26T13:50:53.718Z,3.72
2023-03-26T13:53:36.814Z,4.17
2023-03-26T13:56:05.681Z,3.80
2023-03-26T13:58:41.875Z,3.50
2023-03-26T14:01:19.941Z,4.00
2023-03-26T14:03:54.260Z,4.70
2023-03-26T14:06:57.741Z,4.97
2023-03-26T14:09:33.263Z,3.00
2023-03-26T14:12:43.670Z,2.70
2023-03-26T14:15:28.805Z,2.50
2023-03-26T14:18:46.377Z,4.13
2023-03-26T14:21:44.741Z,2.97
2023-03-26T14:24:28.921Z,3.50
2023-03-26T14:27:20.057Z,3.37
2023-03-26T14:30:28.220Z,2.47
2023-03-26T14:33:34.203Z,3.23
2023-03-26T14:36:13.554Z,3.23
2023-03-26T14:39:18.781Z,3.27
2023-03-26T14:41:53.314Z,2.13
2023-03-26T14:51:14.286Z,4.90
2023-03-26T14:53:52.364Z,3.17
2023-03-26T14:56:30.235Z,3.60
2023-03-26T14:59:18.571Z,3.63
2023-03-26T15:02:16.220Z,2.70
2023-03-26T15:05:10.968Z,2.97
2023-03-26T15:07:52.582Z,2.50
2023-03-26T15:10:45.357Z,3.37
2023-03-26T15:13:30.388Z,3.80
2023-03-26T15:25:51.545Z,5.37
2023-03-26T15:28:36.994Z,4.43
2023-03-26T15:31:31.046Z,4.50
2023-03-26T15:34:31.062Z,3.83
2023-03-26T15:44:22.177Z,3.90
2023-03-26T15:46:55.705Z,3.30
2023-03-26T15:50:15.732Z,3.60
2023-03-26T15:52:59.378Z,5.50
2023-03-26T15:55:40.274Z,3.37
2023-03-26T15:58:13.090Z,6.27
2023-03-26T16:01:18.955Z,4.57
2023-03-26T16:04:09.194Z,4.70
2023-03-26T16:06:51.072Z,5.83
2023-03-26T16:09:53.095Z,4.67
2023-03-26T16:12:32.246Z,4.10
2023-03-26T16:15:11.621Z,4.40
2023-03-26T16:18:11.601Z,5.07
2023-03-26T16:21:30.339Z,7.27
2023-03-26T16:24:03.162Z,4.40
2023-03-26T16:26:43.853Z,3.40
2023-03-26T16:29:25.783Z,5.17
2023-03-26T16:32:14.933Z,4.30
2023-03-26T16:35:01.633Z,5.40
2023-03-26T16:37:36.201Z,4.60
2023-03-26T16:40:22.377Z,4.10
2023-03-26T16:43:10.396Z,8.60
2023-03-26T16:45:52.636Z,5.37
2023-03-26T16:48:34.670Z,4.87
2023-03-26T16:51:46.407Z,6.77
2023-03-26T16:54:24.740Z,6.10
2023-03-26T16:57:06.646Z,6.70
2023-03-26T16:59:46.937Z,6.30
2023-03-26T17:02:36.849Z,6.80
2023-03-26T17:05:34.394Z,5.97
2023-03-26T17:08:37.325Z,8.17
2023-03-26T17:11:26.628Z,5.67
2023-03-26T17:14:17.614Z,7.63
2023-03-26T17:17:12.096Z,7.30
2023-03-26T17:20:11.725Z,8.43
2023-03-26T17:23:02.566Z,8.87
2023-03-26T17:26:09.479Z,7.27
2023-03-26T17:29:27.230Z,6.40
2023-03-26T17:32:09.146Z,7.03
2023-03-26T17:34:38.734Z,8.87
2023-03-26T17:37:35.722Z,6.38
2023-03-26T17:40:09.417Z,11.57
2023-03-26T17:42:37.543Z,9.30
2023-03-26T17:45:24.216Z,7.25
2023-03-26T17:48:21.886Z,6.90
2023-03-26T17:50:55.574Z,7.82
2023-03-26T17:53:32.534Z,9.10
2023-03-26T17:56:06.546Z,6.80
2023-03-26T17:58:44.699Z,8.13
2023-03-26T18:01:31.349Z,9.00
2023-03-26T18:04:02.906Z,11.30
2023-03-26T18:07:14.227Z,8.10
2023-03-26T18:10:12.961Z,7.53
2023-03-26T18:12:54.553Z,7.63
2023-03-26T18:15:23.149Z,11.10
2023-03-26T18:17:52.842Z,10.70
2023-03-26T18:20:24.572Z,8.87
2023-03-26T18:22:53.003Z,8.97
2023-03-26T18:25:32.379Z,8.60
2023-03-26T18:28:02.383Z,6.97
2023-03-26T18:30:29.790Z,7.80
2023-03-26T18:33:15.105Z,10.23
2023-03-26T18:35:50.697Z,7.87
2023-03-26T18:38:36.287Z,9.97
2023-03-26T18:41:06.549Z,11.00
2023-03-26T18:43:35.575Z,11.00
2023-03-26T18:46:13.740Z,11.20
2023-03-26T18:48:41.179Z,12.00
2023-03-26T18:51:09.455Z,14.13
2023-03-26T18:53:48.729Z,13.37
2023-03-26T18:56:41.705Z,13.97
2023-03-26T18:59:28.048Z,13.00
2023-03-26T19:01:57.836Z,13.87
2023-03-26T19:04:33.330Z,12.47
2023-03-26T19:07:01.745Z,14.07
2023-03-26T19:09:32.238Z,13.73
2023-03-26T19:12:06.891Z,16.50
2023-03-26T19:14:37.213Z,16.70
2023-03-26T19:17:07.109Z,15.70
2023-03-26T19:19:37.373Z,16.27
2023-03-26T19:22:07.102Z,14.87
2023-03-26T19:24:35.036Z,16.47
2023-03-26T19:27:06.092Z,16.50
2023-03-26T19:29:35.837Z,15.23
2023-03-26T19:32:16.865Z,17.67
2023-03-26T19:34:46.559Z,19.17
2023-03-26T19:37:25.925Z,19.33
2023-03-26T19:39:53.991Z,18.37
2023-03-26T19:42:27.261Z,18.43
2023-03-26T19:45:20.857Z,21.90
2023-03-26T19:48:00.016Z,19.00
2023-03-26T19:50:42.444Z,21.63
2023-03-26T19:53:49.865Z,19.80
2023-03-26T19:56:19.726Z,20.57
2023-03-26T19:58:48.344Z,19.80
2023-03-26T20:01:19.013Z,24.20
2023-03-26T20:03:50.284Z,22.57
2023-03-26T20:06:30.898Z,22.07
2023-03-26T20:09:14.100Z,23.43
2023-03-26T20:11:41.628Z,23.07
2023-03-26T20:14:26.039Z,25.90
2023-03-26T20:16:53.803Z,30.80
2023-03-26T20:19:25.052Z,26.13
2023-03-26T20:21:55.397Z,28.17
2023-03-26T20:24:42.467Z,26.97
2023-03-26T20:27:09.466Z,29.57
2023-03-26T20:29:36.791Z,26.27
2023-03-26T20:32:06.455Z,26.20
2023-03-26T20:34:35.200Z,28.40
2023-03-26T20:37:03.517Z,25.83
2023-03-26T20:39:30.774Z,29.43
2023-03-26T20:41:59.542Z,30.20
2023-03-26T20:44:29.586Z,26.80
2023-03-26T20:46:59.345Z,27.17
2023-03-26T20:49:30.048Z,26.23
2023-03-26T20:51:57.580Z,24.03
2023-03-26T20:54:26.073Z,24.13
2023-03-26T20:56:54.912Z,22.63
2023-03-26T20:59:27.048Z,27.30
2023-03-26T21:01:57.927Z,25.20
2023-03-26T21:04:29.997Z,26.90
2023-03-26T21:07:14.980Z,25.77
2023-03-26T21:09:44.926Z,26.70
2023-03-26T21:12:42.073Z,26.97
2023-03-26T21:15:22.365Z,26.73
2023-03-26T21:17:55.437Z,25.87
2023-03-26T21:20:25.399Z,27.37
2023-03-26T21:23:26.106Z,28.87
2023-03-26T21:26:15.818Z,25.80
2023-03-26T21:28:50.149Z,26.60
2023-03-26T21:31:32.946Z,29.47
2023-03-26T21:34:05.752Z,23.87
2023-03-26T21:36:37.828Z,25.77
2023-03-26T21:39:06.901Z,24.40
2023-03-26T21:41:45.412Z,25.43
2023-03-26T21:44:17.205Z,30.87
2023-03-26T21:46:49.051Z,31.07
2023-03-26T21:49:24.240Z,28.73
2023-03-26T21:51:51.917Z,27.80
